sensor_id;sensor_type;location;lat;lon;timestamp;pressure;altitude;pressure_sealevel;temperature;humidity
75136;BME280;63707;52.212;9.540;2022-10-22T14:23:31;99838.28;;;16.76;68.77
75136;BME280;63707;52.212;9.540;2022-10-22T14:25:58;99839.31;;;16.70;69.45
75136;BME280;63707;52.212;9.540;2022-10-22T14:28:24;99839.44;;;16.46;70.34
75136;BME280;63707;52.212;9.540;2022-10-22T14:30:51;99846.09;;;16.33;70.25
75136;BME280;63707;52.212;9.540;2022-10-22T14:33:18;99848.09;;;16.38;70.48
75136;BME280;63707;52.212;9.540;2022-10-22T14:38:12;99844.59;;;16.09;69.86
75136;BME280;63707;52.212;9.540;2022-10-22T14:40:40;99848.88;;;16.05;69.47
75136;BME280;63707;52.212;9.540;2022-10-22T14:43:09;99854.19;;;15.95;69.00
75136;BME280;63707;52.212;9.540;2022-10-22T14:45:35;99851.19;;;15.96;68.63
75136;BME280;63707;52.212;9.540;2022-10-22T14:48:00;99857.09;;;15.88;69.12
75136;BME280;63707;52.212;9.540;2022-10-22T14:50:26;99860.25;;;15.80;70.28
75136;BME280;63707;52.212;9.540;2022-10-22T14:52:51;99865.06;;;15.73;70.36
75136;BME280;63707;52.212;9.540;2022-10-22T14:55:18;99869.03;;;15.65;71.46
75136;BME280;63707;52.212;9.540;2022-10-22T14:57:45;99858.38;;;15.57;72.00
75136;BME280;63707;52.212;9.540;2022-10-22T15:00:13;99875.34;;;15.54;72.39
75136;BME280;63707;52.212;9.540;2022-10-22T15:02:39;99867.94;;;15.55;72.27
75136;BME280;63707;52.212;9.540;2022-10-22T15:05:05;99869.84;;;15.54;72.58
75136;BME280;63707;52.212;9.540;2022-10-22T15:07:31;99878.06;;;15.54;72.21
75136;BME280;63707;52.212;9.540;2022-10-22T15:09:57;99882.53;;;15.43;72.26
75136;BME280;63707;52.212;9.540;2022-10-22T15:12:22;99886.34;;;15.42;71.28
75136;BME280;63707;52.212;9.540;2022-10-22T15:14:49;99895.41;;;15.43;70.20
75136;BME280;63707;52.212;9.540;2022-10-22T15:17:16;99891.72;;;15.37;70.01
75136;BME280;63707;52.212;9.540;2022-10-22T15:19:42;99890.56;;;15.33;70.15
75136;BME280;63707;52.212;9.540;2022-10-22T15:22:08;99895.19;;;15.44;69.76
75136;BME280;63707;52.212;9.540;2022-10-22T15:24:33;99896.38;;;15.37;68.70
75136;BME280;63707;52.212;9.540;2022-10-22T15:26:59;99906.66;;;15.30;69.37
75136;BME280;63707;52.212;9.540;2022-10-22T15:29:24;99910.50;;;15.29;69.21
75136;BME280;63707;52.212;9.540;2022-10-22T15:31:53;99910.38;;;15.24;69.37
75136;BME280;63707;52.212;9.540;2022-10-22T15:34:23;99907.03;;;15.22;69.48
75136;BME280;63707;52.212;9.540;2022-10-22T15:36:49;99910.88;;;15.21;69.59
75136;BME280;63707;52.212;9.540;2022-10-22T15:39:16;99920.91;;;15.15;70.23
75136;BME280;63707;52.212;9.540;2022-10-22T15:41:41;99924.47;;;15.16;69.61
75136;BME280;63707;52.212;9.540;2022-10-22T15:44:07;99916.69;;;15.12;69.80
75136;BME280;63707;52.212;9.540;2022-10-22T15:46:38;99920.75;;;15.10;70.25
75136;BME280;63707;52.212;9.540;2022-10-22T15:49:05;99919.31;;;15.07;69.58
75136;BME280;63707;52.212;9.540;2022-10-22T15:51:30;99923.97;;;15.07;69.63
75136;BME280;63707;52.212;9.540;2022-10-22T15:53:57;99923.25;;;15.11;69.15
75136;BME280;63707;52.212;9.540;2022-10-22T15:56:24;99944.50;;;15.04;69.71
75136;BME280;63707;52.212;9.540;2022-10-22T15:58:54;99940.44;;;15.07;70.02
75136;BME280;63707;52.212;9.540;2022-10-22T16:01:20;99951.66;;;14.94;71.19
75136;BME280;63707;52.212;9.540;2022-10-22T16:03:45;99946.16;;;14.70;73.43
75136;BME280;63707;52.212;9.540;2022-10-22T16:06:12;99951.28;;;14.37;75.85
75136;BME280;63707;52.212;9.540;2022-10-22T16:08:38;99956.13;;;14.23;77.80
75136;BME280;63707;52.212;9.540;2022-10-22T16:11:04;99944.91;;;14.25;76.26
75136;BME280;63707;52.212;9.540;2022-10-22T16:13:29;99953.97;;;14.25;76.88
75136;BME280;63707;52.212;9.540;2022-10-22T16:15:55;99947.66;;;14.25;76.27
75136;BME280;63707;52.212;9.540;2022-10-22T16:18:21;99947.66;;;14.25;76.06
75136;BME280;63707;52.212;9.540;2022-10-22T16:20:48;99942.19;;;14.25;76.21
75136;BME280;63707;52.212;9.540;2022-10-22T16:23:15;99949.09;;;14.27;76.03
75136;BME280;63707;52.212;9.540;2022-10-22T16:25:43;99955.66;;;14.26;75.97
75136;BME280;63707;52.212;9.540;2022-10-22T16:28:10;99952.66;;;14.28;75.90
75136;BME280;63707;52.212;9.540;2022-10-22T16:30:37;99964.94;;;14.25;75.38
75136;BME280;63707;52.212;9.540;2022-10-22T16:33:04;99968.44;;;14.14;77.31
75136;BME280;63707;52.212;9.540;2022-10-22T16:35:30;99964.97;;;14.07;78.98
75136;BME280;63707;52.212;9.540;2022-10-22T16:37:56;99968.91;;;14.11;76.36
75136;BME280;63707;52.212;9.540;2022-10-22T16:40:23;99966.25;;;14.04;78.09
75136;BME280;63707;52.212;9.540;2022-10-22T16:42:49;99966.34;;;13.98;78.35
75136;BME280;63707;52.212;9.540;2022-10-22T16:45:15;99968.63;;;14.01;78.11
75136;BME280;63707;52.212;9.540;2022-10-22T16:47:41;99971.22;;;13.96;78.09
75136;BME280;63707;52.212;9.540;2022-10-22T16:53:17;99982.69;;;14.04;78.33
75136;BME280;63707;52.212;9.540;2022-10-22T16:55:42;99971.38;;;14.01;78.29
75136;BME280;63707;52.212;9.540;2022-10-22T16:58:08;99984.03;;;14.13;75.35
75136;BME280;63707;52.212;9.540;2022-10-22T17:00:33;99980.25;;;14.14;75.03
75136;BME280;63707;52.212;9.540;2022-10-22T17:02:59;99979.94;;;14.23;74.56
75136;BME280;63707;52.212;9.540;2022-10-22T17:05:24;99982.06;;;14.21;74.55
75136;BME280;63707;52.212;9.540;2022-10-22T17:07:50;99988.16;;;14.23;73.88
75136;BME280;63707;52.212;9.540;2022-10-22T17:10:18;99986.88;;;14.25;74.43
75136;BME280;63707;52.212;9.540;2022-10-22T17:12:44;99983.06;;;14.26;74.13
75136;BME280;63707;52.212;9.540;2022-10-22T17:15:10;99987.00;;;14.30;73.58
75136;BME280;63707;52.212;9.540;2022-10-22T17:17:35;99996.28;;;14.29;73.40
75136;BME280;63707;52.212;9.540;2022-10-22T17:20:01;99991.75;;;14.23;73.97
75136;BME280;63707;52.212;9.540;2022-10-22T17:22:26;99993.03;;;14.21;74.14
75136;BME280;63707;52.212;9.540;2022-10-22T17:25:05;99994.25;;;14.06;75.40
75136;BME280;63707;52.212;9.540;2022-10-22T17:27:33;99988.22;;;14.16;74.38
75136;BME280;63707;52.212;9.540;2022-10-22T17:29:58;100002.41;;;13.95;77.26
75136;BME280;63707;52.212;9.540;2022-10-22T17:32:27;100010.13;;;13.86;77.14
75136;BME280;63707;52.212;9.540;2022-10-22T17:34:54;100017.50;;;13.85;77.25
75136;BME280;63707;52.212;9.540;2022-10-22T17:37:19;100012.16;;;13.91;77.01
75136;BME280;63707;52.212;9.540;2022-10-22T17:39:45;100015.50;;;13.93;76.96
75136;BME280;63707;52.212;9.540;2022-10-22T17:42:10;100012.09;;;13.79;77.14
75136;BME280;63707;52.212;9.540;2022-10-22T17:44:37;100013.09;;;13.84;75.78
75136;BME280;63707;52.212;9.540;2022-10-22T17:47:03;100014.31;;;13.89;77.64
75136;BME280;63707;52.212;9.540;2022-10-22T17:49:28;100019.53;;;14.08;74.22
75136;BME280;63707;52.212;9.540;2022-10-22T17:51:54;100024.53;;;14.11;73.89
75136;BME280;63707;52.212;9.540;2022-10-22T17:54:19;100018.38;;;14.16;73.70
75136;BME280;63707;52.212;9.540;2022-10-22T17:56:45;100018.06;;;14.24;73.38
75136;BME280;63707;52.212;9.540;2022-10-22T17:59:12;100016.69;;;14.15;73.69
75136;BME280;63707;52.212;9.540;2022-10-22T18:01:40;100023.00;;;14.15;73.30
75136;BME280;63707;52.212;9.540;2022-10-22T18:04:12;100017.31;;;14.17;73.37
75136;BME280;63707;52.212;9.540;2022-10-22T18:06:38;100028.44;;;14.04;74.24
75136;BME280;63707;52.212;9.540;2022-10-22T18:09:04;100032.84;;;14.05;73.76
75136;BME280;63707;52.212;9.540;2022-10-22T18:11:30;100041.69;;;13.89;74.68
75136;BME280;63707;52.212;9.540;2022-10-22T18:13:56;100040.47;;;13.84;74.41
75136;BME280;63707;52.212;9.540;2022-10-22T18:16:22;100040.59;;;13.71;76.11
75136;BME280;63707;52.212;9.540;2022-10-22T18:18:51;100048.47;;;13.43;78.44
75136;BME280;63707;52.212;9.540;2022-10-22T18:21:18;100041.34;;;13.60;76.70
75136;BME280;63707;52.212;9.540;2022-10-22T18:23:44;100056.00;;;13.47;76.74
75136;BME280;63707;52.212;9.540;2022-10-22T18:26:10;100055.59;;;13.26;78.67
75136;BME280;63707;52.212;9.540;2022-10-22T18:28:36;100058.50;;;13.31;77.18
75136;BME280;63707;52.212;9.540;2022-10-22T18:31:04;100053.56;;;13.39;76.53
75136;BME280;63707;52.212;9.540;2022-10-22T18:33:31;100060.03;;;13.45;75.95
75136;BME280;63707;52.212;9.540;2022-10-22T18:36:03;100064.19;;;13.29;77.36
75136;BME280;63707;52.212;9.540;2022-10-22T18:38:29;100075.03;;;13.11;78.34
75136;BME280;63707;52.212;9.540;2022-10-22T18:40:54;100070.06;;;13.01;78.21
75136;BME280;63707;52.212;9.540;2022-10-22T18:43:20;100071.03;;;12.82;79.67
75136;BME280;63707;52.212;9.540;2022-10-22T18:45:46;100063.16;;;12.60;81.11
75136;BME280;63707;52.212;9.540;2022-10-22T18:48:14;100063.22;;;12.85;78.48
75136;BME280;63707;52.212;9.540;2022-10-22T18:50:40;100072.44;;;12.91;78.07
75136;BME280;63707;52.212;9.540;2022-10-22T18:53:07;100073.78;;;12.75;79.63
75136;BME280;63707;52.212;9.540;2022-10-22T18:55:33;100079.69;;;12.79;79.23
75136;BME280;63707;52.212;9.540;2022-10-22T18:58:02;100080.09;;;12.82;78.53
75136;BME280;63707;52.212;9.540;2022-10-22T19:00:27;100078.66;;;13.05;77.30
75136;BME280;63707;52.212;9.540;2022-10-22T19:02:53;100072.94;;;13.38;74.99
75136;BME280;63707;52.212;9.540;2022-10-22T19:05:19;100071.81;;;13.45;74.52
75136;BME280;63707;52.212;9.540;2022-10-22T19:07:45;100067.03;;;13.41;74.58
75136;BME280;63707;52.212;9.540;2022-10-22T19:10:12;100064.88;;;13.25;76.45
75136;BME280;63707;52.212;9.540;2022-10-22T19:12:38;100066.44;;;13.07;76.48
75136;BME280;63707;52.212;9.540;2022-10-22T19:15:04;100067.59;;;13.25;75.12
75136;BME280;63707;52.212;9.540;2022-10-22T19:17:30;100069.22;;;13.01;77.11
75136;BME280;63707;52.212;9.540;2022-10-22T19:19:55;100067.66;;;13.11;75.99
75136;BME280;63707;52.212;9.540;2022-10-22T19:22:21;100069.78;;;13.09;75.79
75136;BME280;63707;52.212;9.540;2022-10-22T19:24:50;100073.00;;;13.00;76.38
75136;BME280;63707;52.212;9.540;2022-10-22T19:27:17;100079.09;;;13.02;76.31
75136;BME280;63707;52.212;9.540;2022-10-22T19:29:43;100077.41;;;12.69;78.33
75136;BME280;63707;52.212;9.540;2022-10-22T19:32:09;100088.94;;;12.40;80.63
75136;BME280;63707;52.212;9.540;2022-10-22T19:34:35;100082.00;;;12.37;80.12
75136;BME280;63707;52.212;9.540;2022-10-22T19:37:00;100089.59;;;12.28;81.10
75136;BME280;63707;52.212;9.540;2022-10-22T19:39:26;100092.22;;;12.04;82.13
75136;BME280;63707;52.212;9.540;2022-10-22T19:41:51;100090.16;;;11.92;83.05
75136;BME280;63707;52.212;9.540;2022-10-22T19:44:18;100092.41;;;12.09;81.31
75136;BME280;63707;52.212;9.540;2022-10-22T19:46:44;100091.81;;;12.00;82.18
75136;BME280;63707;52.212;9.540;2022-10-22T19:49:10;100096.88;;;11.90;82.75
75136;BME280;63707;52.212;9.540;2022-10-22T19:51:35;100098.25;;;12.19;80.43
75136;BME280;63707;52.212;9.540;2022-10-22T19:54:04;100094.38;;;11.88;82.31
75136;BME280;63707;52.212;9.540;2022-10-22T19:56:31;100096.91;;;11.50;84.10
75136;BME280;63707;52.212;9.540;2022-10-22T19:58:58;100107.81;;;11.30;84.57
75136;BME280;63707;52.212;9.540;2022-10-22T20:01:25;100113.69;;;11.21;85.55
75136;BME280;63707;52.212;9.540;2022-10-22T20:03:51;100117.66;;;11.12;85.91
75136;BME280;63707;52.212;9.540;2022-10-22T20:06:17;100107.81;;;11.04;85.69
75136;BME280;63707;52.212;9.540;2022-10-22T20:08:43;100115.78;;;11.52;82.93
75136;BME280;63707;52.212;9.540;2022-10-22T20:11:15;100114.97;;;11.51;83.10
75136;BME280;63707;52.212;9.540;2022-10-22T20:13:41;100107.63;;;11.39;83.40
75136;BME280;63707;52.212;9.540;2022-10-22T20:16:07;100115.38;;;11.09;85.32
75136;BME280;63707;52.212;9.540;2022-10-22T20:18:33;100115.78;;;10.92;86.08
75136;BME280;63707;52.212;9.540;2022-10-22T20:21:02;100110.47;;;10.78;86.36
75136;BME280;63707;52.212;9.540;2022-10-22T20:23:28;100116.97;;;10.70;87.03
75136;BME280;63707;52.212;9.540;2022-10-22T20:25:53;100114.22;;;10.63;86.58
75136;BME280;63707;52.212;9.540;2022-10-22T20:28:19;100115.44;;;10.54;87.02
75136;BME280;63707;52.212;9.540;2022-10-22T20:30:45;100119.47;;;10.65;87.05
75136;BME280;63707;52.212;9.540;2022-10-22T20:33:11;100108.97;;;10.55;86.92
75136;BME280;63707;52.212;9.540;2022-10-22T20:35:41;100110.13;;;10.39;88.59
75136;BME280;63707;52.212;9.540;2022-10-22T20:38:09;100107.81;;;10.36;88.17
75136;BME280;63707;52.212;9.540;2022-10-22T20:40:36;100113.47;;;10.35;88.01
75136;BME280;63707;52.212;9.540;2022-10-22T20:43:02;100118.56;;;10.45;87.21
75136;BME280;63707;52.212;9.540;2022-10-22T20:45:28;100116.78;;;10.24;88.77
75136;BME280;63707;52.212;9.540;2022-10-22T20:47:54;100122.34;;;10.09;89.45
75136;BME280;63707;52.212;9.540;2022-10-22T20:50:20;100125.50;;;10.13;88.38
75136;BME280;63707;52.212;9.540;2022-10-22T20:52:49;100116.47;;;10.05;89.67
75136;BME280;63707;52.212;9.540;2022-10-22T20:55:15;100124.19;;;10.02;89.87
75136;BME280;63707;52.212;9.540;2022-10-22T20:57:40;100123.75;;;9.98;89.90
75136;BME280;63707;52.212;9.540;2022-10-22T21:00:07;100120.00;;;9.99;89.32
75136;BME280;63707;52.212;9.540;2022-10-22T21:02:33;100123.78;;;10.05;89.27
75136;BME280;63707;52.212;9.540;2022-10-22T21:04:59;100122.34;;;10.09;89.33
75136;BME280;63707;52.212;9.540;2022-10-22T21:07:24;100121.06;;;10.05;89.40
75136;BME280;63707;52.212;9.540;2022-10-22T21:09:52;100121.28;;;10.03;89.20
75136;BME280;63707;52.212;9.540;2022-10-22T21:12:18;100128.59;;;10.03;89.83
75136;BME280;63707;52.212;9.540;2022-10-22T21:14:43;100131.28;;;9.96;89.74
75136;BME280;63707;52.212;9.540;2022-10-22T21:17:10;100127.94;;;9.94;89.31
75136;BME280;63707;52.212;9.540;2022-10-22T21:19:36;100127.66;;;9.89;89.86
75136;BME280;63707;52.212;9.540;2022-10-22T21:22:01;100120.75;;;9.87;89.55
75136;BME280;63707;52.212;9.540;2022-10-22T21:24:27;100128.06;;;9.86;89.80
75136;BME280;63707;52.212;9.540;2022-10-22T21:26:53;100120.50;;;9.82;90.05
75136;BME280;63707;52.212;9.540;2022-10-22T21:29:19;100130.31;;;9.76;90.67
75136;BME280;63707;52.212;9.540;2022-10-22T21:31:45;100120.47;;;9.75;90.71
75136;BME280;63707;52.212;9.540;2022-10-22T21:34:12;100128.38;;;9.70;90.31
75136;BME280;63707;52.212;9.540;2022-10-22T21:36:37;100122.41;;;9.88;90.65
75136;BME280;63707;52.212;9.540;2022-10-22T21:39:03;100113.56;;;9.79;90.52
75136;BME280;63707;52.212;9.540;2022-10-22T21:41:28;100115.50;;;9.85;90.60
75136;BME280;63707;52.212;9.540;2022-10-22T21:43:55;100116.94;;;9.81;90.88
75136;BME280;63707;52.212;9.540;2022-10-22T21:46:23;100117.03;;;9.94;90.47
75136;BME280;63707;52.212;9.540;2022-10-22T21:48:52;100117.63;;;9.90;90.51
75136;BME280;63707;52.212;9.540;2022-10-22T21:51:18;100123.06;;;9.90;90.27
75136;BME280;63707;52.212;9.540;2022-10-22T21:53:45;100116.50;;;10.12;89.15
75136;BME280;63707;52.212;9.540;2022-10-22T21:56:13;100121.50;;;10.08;89.37
75136;BME280;63707;52.212;9.540;2022-10-22T21:58:39;100116.91;;;10.09;88.89
75136;BME280;63707;52.212;9.540;2022-10-22T22:01:06;100105.75;;;9.97;89.54
75136;BME280;63707;52.212;9.540;2022-10-22T22:03:32;100117.88;;;9.95;89.97
75136;BME280;63707;52.212;9.540;2022-10-22T22:05:58;100110.06;;;9.85;90.32
75136;BME280;63707;52.212;9.540;2022-10-22T22:08:24;100115.06;;;9.82;90.16
75136;BME280;63707;52.212;9.540;2022-10-22T22:10:49;100115.16;;;9.95;89.71
75136;BME280;63707;52.212;9.540;2022-10-22T22:13:16;100111.94;;;9.85;89.75
75136;BME280;63707;52.212;9.540;2022-10-22T22:15:42;100117.88;;;9.95;89.58
75136;BME280;63707;52.212;9.540;2022-10-22T22:18:08;100125.44;;;9.99;89.71
75136;BME280;63707;52.212;9.540;2022-10-22T22:20:35;100122.06;;;9.97;89.18
75136;BME280;63707;52.212;9.540;2022-10-22T22:23:01;100118.66;;;9.89;90.09
75136;BME280;63707;52.212;9.540;2022-10-22T22:25:26;100123.47;;;9.87;90.62
75136;BME280;63707;52.212;9.540;2022-10-22T22:27:52;100127.66;;;9.89;89.61
75136;BME280;63707;52.212;9.540;2022-10-22T22:30:17;100121.78;;;9.86;89.90
75136;BME280;63707;52.212;9.540;2022-10-22T22:32:43;100122.97;;;9.76;90.23
75136;BME280;63707;52.212;9.540;2022-10-22T22:35:10;100123.19;;;9.75;90.79
75136;BME280;63707;52.212;9.540;2022-10-22T22:37:35;100117.03;;;9.94;89.90
75136;BME280;63707;52.212;9.540;2022-10-22T22:40:01;100116.34;;;9.86;89.90
75136;BME280;63707;52.212;9.540;2022-10-22T22:42:26;100112.06;;;9.70;90.97
75136;BME280;63707;52.212;9.540;2022-10-22T22:44:52;100110.22;;;9.77;91.08
75136;BME280;63707;52.212;9.540;2022-10-22T22:47:17;100110.63;;;9.74;91.23
75136;BME280;63707;52.212;9.540;2022-10-22T22:49:43;100119.19;;;9.71;91.37
75136;BME280;63707;52.212;9.540;2022-10-22T22:52:10;100121.41;;;9.61;91.46
75136;BME280;63707;52.212;9.540;2022-10-22T22:54:35;100116.19;;;9.59;91.35
75136;BME280;63707;52.212;9.540;2022-10-22T22:57:01;100118.00;;;9.52;91.46
75136;BME280;63707;52.212;9.540;2022-10-22T22:59:26;100120.94;;;9.51;91.79
75136;BME280;63707;52.212;9.540;2022-10-22T23:01:52;100122.16;;;9.48;92.16
75136;BME280;63707;52.212;9.540;2022-10-22T23:04:19;100115.41;;;9.44;92.02
75136;BME280;63707;52.212;9.540;2022-10-22T23:06:48;100116.44;;;9.43;92.97
75136;BME280;63707;52.212;9.540;2022-10-22T23:09:16;100117.56;;;9.49;92.91
75136;BME280;63707;52.212;9.540;2022-10-22T23:11:44;100112.97;;;9.49;92.85
75136;BME280;63707;52.212;9.540;2022-10-22T23:14:11;100118.97;;;9.44;93.14
75136;BME280;63707;52.212;9.540;2022-10-22T23:16:40;100117.75;;;9.47;92.51
75136;BME280;63707;52.212;9.540;2022-10-22T23:19:06;100118.72;;;9.39;93.21
75136;BME280;63707;52.212;9.540;2022-10-22T23:21:33;100113.28;;;9.39;93.24
75136;BME280;63707;52.212;9.540;2022-10-22T23:24:01;100115.41;;;9.44;93.42
75136;BME280;63707;52.212;9.540;2022-10-22T23:26:30;100107.72;;;9.48;92.98
75136;BME280;63707;52.212;9.540;2022-10-22T23:28:58;100110.34;;;9.62;92.78
75136;BME280;63707;52.212;9.540;2022-10-22T23:31:25;100111.75;;;9.93;91.45
75136;BME280;63707;52.212;9.540;2022-10-22T23:33:51;100112.72;;;9.78;92.24
75136;BME280;63707;52.212;9.540;2022-10-22T23:36:17;100110.88;;;9.86;91.43
75136;BME280;63707;52.212;9.540;2022-10-22T23:38:43;100113.34;;;9.74;91.58
75136;BME280;63707;52.212;9.540;2022-10-22T23:41:09;100118.75;;;9.67;91.72
75136;BME280;63707;52.212;9.540;2022-10-22T23:43:36;100112.72;;;9.78;92.30
75136;BME280;63707;52.212;9.540;2022-10-22T23:46:03;100108.59;;;9.89;92.20
75136;BME280;63707;52.212;9.540;2022-10-22T23:48:28;100106.88;;;10.16;91.05
75136;BME280;63707;52.212;9.540;2022-10-22T23:50:54;100094.19;;;10.30;90.77
75136;BME280;63707;52.212;9.540;2022-10-22T23:53:19;100097.84;;;10.09;91.48
75136;BME280;63707;52.212;9.540;2022-10-22T23:55:45;100098.44;;;10.04;91.14
75136;BME280;63707;52.212;9.540;2022-10-22T23:58:11;100100.09;;;9.99;91.81
